sensor_id;sensor_type;location;lat;lon;timestamp;pressure;altitude;pressure_sealevel;temperature;humidity
21290;BME280;10804;48.988;2.408;2022-11-15T00:01:38;100296.97;;;14.64;62.74
21290;BME280;10804;48.988;2.408;2022-11-15T00:04:42;100297.91;;;14.63;62.60
21290;BME280;10804;48.988;2.408;2022-11-15T00:07:48;100299.75;;;14.61;62.86
21290;BME280;10804;48.988;2.408;2022-11-15T00:10:56;100296.28;;;14.61;62.72
21290;BME280;10804;48.988;2.408;2022-11-15T00:14:00;100292.88;;;14.59;62.82
21290;BME280;10804;48.988;2.408;2022-11-15T00:17:07;100286.81;;;14.58;62.92
21290;BME280;10804;48.988;2.408;2022-11-15T00:20:12;100284.38;;;14.54;62.72
21290;BME280;10804;48.988;2.408;2022-11-15T00:23:16;100287.91;;;14.53;62.78
21290;BME280;10804;48.988;2.408;2022-11-15T00:26:21;100287.09;;;14.52;62.88
21290;BME280;10804;48.988;2.408;2022-11-15T00:29:26;100288.84;;;14.52;62.86
21290;BME280;10804;48.988;2.408;2022-11-15T00:32:32;100278.53;;;14.49;62.97
21290;BME280;10804;48.988;2.408;2022-11-15T00:35:36;100272.50;;;14.47;62.88
21290;BME280;10804;48.988;2.408;2022-11-15T00:38:41;100269.94;;;14.45;62.92
21290;BME280;10804;48.988;2.408;2022-11-15T00:41:45;100269.94;;;14.45;63.06
21290;BME280;10804;48.988;2.408;2022-11-15T00:44:50;100267.44;;;14.42;63.10
21290;BME280;10804;48.988;2.408;2022-11-15T00:47:56;100270.00;;;14.44;63.11
21290;BME280;10804;48.988;2.408;2022-11-15T00:51:00;100266.69;;;14.40;63.09
21290;BME280;10804;48.988;2.408;2022-11-15T00:54:05;100258.03;;;14.38;63.15
21290;BME280;10804;48.988;2.408;2022-11-15T00:57:09;100259.75;;;14.39;63.24
21290;BME280;10804;48.988;2.408;2022-11-15T01:00:15;100258.19;;;14.35;63.24
21290;BME280;10804;48.988;2.408;2022-11-15T01:03:21;100252.97;;;14.35;63.14
21290;BME280;10804;48.988;2.408;2022-11-15T01:06:25;100251.22;;;14.34;63.42
21290;BME280;10804;48.988;2.408;2022-11-15T01:09:30;100257.50;;;14.32;63.22
21290;BME280;10804;48.988;2.408;2022-11-15T01:12:34;100257.50;;;14.32;63.50
21290;BME280;10804;48.988;2.408;2022-11-15T01:15:39;100247.13;;;14.29;63.53
21290;BME280;10804;48.988;2.408;2022-11-15T01:18:45;100237.63;;;14.26;63.48
21290;BME280;10804;48.988;2.408;2022-11-15T01:21:50;100249.00;;;14.27;63.54
21290;BME280;10804;48.988;2.408;2022-11-15T01:24:55;100242.06;;;14.26;63.57
21290;BME280;10804;48.988;2.408;2022-11-15T01:27:59;100241.28;;;14.24;63.58
21290;BME280;10804;48.988;2.408;2022-11-15T01:31:06;100228.28;;;14.21;63.63
21290;BME280;10804;48.988;2.408;2022-11-15T01:34:14;100223.06;;;14.21;63.73
21290;BME280;10804;48.988;2.408;2022-11-15T01:37:18;100222.31;;;14.17;63.32
21290;BME280;10804;48.988;2.408;2022-11-15T01:40:22;100222.31;;;14.17;63.66
21290;BME280;10804;48.988;2.408;2022-11-15T01:43:29;100213.69;;;14.15;63.76
21290;BME280;10804;48.988;2.408;2022-11-15T01:46:35;100206.81;;;14.13;63.62
21290;BME280;10804;48.988;2.408;2022-11-15T01:49:55;100201.72;;;14.10;63.69
21290;BME280;10804;48.988;2.408;2022-11-15T01:53:02;100199.94;;;14.10;63.77
21290;BME280;10804;48.988;2.408;2022-11-15T01:56:09;100198.25;;;14.09;63.80
21290;BME280;10804;48.988;2.408;2022-11-15T01:59:15;100203.53;;;14.08;63.71
21290;BME280;10804;48.988;2.408;2022-11-15T02:02:20;100194.09;;;14.05;63.65
21290;BME280;10804;48.988;2.408;2022-11-15T02:05:26;100185.41;;;14.03;63.77
21290;BME280;10804;48.988;2.408;2022-11-15T02:08:30;100190.66;;;14.03;63.66
21290;BME280;10804;48.988;2.408;2022-11-15T02:11:35;100182.09;;;14.00;63.71
21290;BME280;10804;48.988;2.408;2022-11-15T02:14:40;100182.09;;;14.00;63.91
21290;BME280;10804;48.988;2.408;2022-11-15T02:17:58;100176.03;;;13.99;63.70
21290;BME280;10804;48.988;2.408;2022-11-15T02:21:17;100172.75;;;13.94;63.66
21290;BME280;10804;48.988;2.408;2022-11-15T02:24:45;100170.06;;;13.96;63.93
21290;BME280;10804;48.988;2.408;2022-11-15T02:28:10;100167.56;;;13.93;64.06
21290;BME280;10804;48.988;2.408;2022-11-15T02:31:22;100163.25;;;13.92;64.09
21290;BME280;10804;48.988;2.408;2022-11-15T02:34:35;100156.41;;;13.89;63.84
21290;BME280;10804;48.988;2.408;2022-11-15T02:37:49;100158.19;;;13.89;64.09
21290;BME280;10804;48.988;2.408;2022-11-15T02:40:58;100153.94;;;13.86;63.99
21290;BME280;10804;48.988;2.408;2022-11-15T02:44:08;100151.38;;;13.85;63.98
21290;BME280;10804;48.988;2.408;2022-11-15T02:47:17;100138.34;;;13.83;64.16
21290;BME280;10804;48.988;2.408;2022-11-15T02:50:26;100139.28;;;13.82;63.84
21290;BME280;10804;48.988;2.408;2022-11-15T02:53:32;100134.94;;;13.81;63.96
21290;BME280;10804;48.988;2.408;2022-11-15T02:56:37;100130.72;;;13.79;63.96
21290;BME280;10804;48.988;2.408;2022-11-15T02:59:51;100122.94;;;13.77;63.95
21290;BME280;10804;48.988;2.408;2022-11-15T03:06:41;100105.63;;;13.73;64.06
21290;BME280;10804;48.988;2.408;2022-11-15T03:09:51;100097.88;;;13.72;63.91
21290;BME280;10804;48.988;2.408;2022-11-15T03:13:06;100096.19;;;13.71;64.22
21290;BME280;10804;48.988;2.408;2022-11-15T03:16:20;100090.06;;;13.70;64.23
21290;BME280;10804;48.988;2.408;2022-11-15T03:19:32;100094.53;;;13.68;64.26
21290;BME280;10804;48.988;2.408;2022-11-15T03:22:43;100084.13;;;13.67;64.22
21290;BME280;10804;48.988;2.408;2022-11-15T03:25:49;100085.97;;;13.65;64.06
21290;BME280;10804;48.988;2.408;2022-11-15T03:28:57;100076.44;;;13.64;64.21
21290;BME280;10804;48.988;2.408;2022-11-15T03:32:06;100081.72;;;13.62;64.07
21290;BME280;10804;48.988;2.408;2022-11-15T03:35:17;100075.78;;;13.59;64.30
21290;BME280;10804;48.988;2.408;2022-11-15T03:38:25;100076.66;;;13.59;64.06
21290;BME280;10804;48.988;2.408;2022-11-15T03:41:35;100068.00;;;13.57;64.25
21290;BME280;10804;48.988;2.408;2022-11-15T03:44:46;100073.25;;;13.57;64.39
21290;BME280;10804;48.988;2.408;2022-11-15T03:47:57;100071.53;;;13.56;64.37
21290;BME280;10804;48.988;2.408;2022-11-15T03:51:04;100062.91;;;13.54;64.11
21290;BME280;10804;48.988;2.408;2022-11-15T03:54:11;100064.78;;;13.52;64.34
21290;BME280;10804;48.988;2.408;2022-11-15T03:57:16;100056.06;;;13.52;64.29
21290;BME280;10804;48.988;2.408;2022-11-15T04:00:21;100053.59;;;13.49;64.35
21290;BME280;10804;48.988;2.408;2022-11-15T04:03:25;100056.13;;;13.50;64.23
21290;BME280;10804;48.988;2.408;2022-11-15T04:06:31;100060.59;;;13.48;64.10
21290;BME280;10804;48.988;2.408;2022-11-15T04:09:36;100059.81;;;13.46;64.48
21290;BME280;10804;48.988;2.408;2022-11-15T04:13:02;100054.56;;;13.46;64.43
21290;BME280;10804;48.988;2.408;2022-11-15T04:16:07;100047.78;;;13.42;64.50
21290;BME280;10804;48.988;2.408;2022-11-15T04:19:11;100050.34;;;13.44;64.25
21290;BME280;10804;48.988;2.408;2022-11-15T04:22:35;100051.31;;;13.41;64.11
21290;BME280;10804;48.988;2.408;2022-11-15T04:25:59;100052.19;;;13.42;64.36
21290;BME280;10804;48.988;2.408;2022-11-15T04:29:05;100051.47;;;13.38;64.41
21290;BME280;10804;48.988;2.408;2022-11-15T04:32:27;100047.94;;;13.39;64.35
21290;BME280;10804;48.988;2.408;2022-11-15T04:35:32;100044.56;;;13.37;64.59
21290;BME280;10804;48.988;2.408;2022-11-15T04:38:38;100038.50;;;13.35;64.11
21290;BME280;10804;48.988;2.408;2022-11-15T04:41:42;100030.66;;;13.35;64.53
21290;BME280;10804;48.988;2.408;2022-11-15T04:44:47;100025.41;;;13.35;64.60
21290;BME280;10804;48.988;2.408;2022-11-15T04:47:51;100026.44;;;13.33;64.42
21290;BME280;10804;48.988;2.408;2022-11-15T04:50:55;100016.91;;;13.32;64.50
21290;BME280;10804;48.988;2.408;2022-11-15T04:54:01;100011.72;;;13.30;64.39
21290;BME280;10804;48.988;2.408;2022-11-15T04:57:06;100014.41;;;13.29;64.58
21290;BME280;10804;48.988;2.408;2022-11-15T05:00:13;100003.16;;;13.27;64.21
21290;BME280;10804;48.988;2.408;2022-11-15T05:03:17;100003.22;;;13.25;64.58
21290;BME280;10804;48.988;2.408;2022-11-15T05:06:39;99991.91;;;13.25;64.36
21290;BME280;10804;48.988;2.408;2022-11-15T05:09:45;100003.38;;;13.22;64.33
21290;BME280;10804;48.988;2.408;2022-11-15T05:12:50;99996.44;;;13.21;64.39
21290;BME280;10804;48.988;2.408;2022-11-15T05:15:54;99992.91;;;13.22;64.26
21290;BME280;10804;48.988;2.408;2022-11-15T05:18:59;99991.34;;;13.18;64.48
21290;BME280;10804;48.988;2.408;2022-11-15T05:22:03;99989.59;;;13.19;64.38
21290;BME280;10804;48.988;2.408;2022-11-15T05:25:09;99981.81;;;13.17;64.46
21290;BME280;10804;48.988;2.408;2022-11-15T05:28:13;99981.03;;;13.15;64.50
21290;BME280;10804;48.988;2.408;2022-11-15T05:31:18;99975.78;;;13.15;64.69
21290;BME280;10804;48.988;2.408;2022-11-15T05:34:24;99974.09;;;13.14;64.36
21290;BME280;10804;48.988;2.408;2022-11-15T05:37:30;99990.75;;;13.13;64.54
21290;BME280;10804;48.988;2.408;2022-11-15T05:40:35;99983.78;;;13.12;64.36
21290;BME280;10804;48.988;2.408;2022-11-15T05:43:41;100002.19;;;13.11;64.41
21290;BME280;10804;48.988;2.408;2022-11-15T05:46:48;100006.56;;;13.10;64.33
21290;BME280;10804;48.988;2.408;2022-11-15T05:49:53;100007.50;;;13.09;64.39
21290;BME280;10804;48.988;2.408;2022-11-15T05:52:58;100000.56;;;13.08;64.36
21290;BME280;10804;48.988;2.408;2022-11-15T05:56:05;99986.72;;;13.06;64.63
21290;BME280;10804;48.988;2.408;2022-11-15T05:59:11;99979.69;;;13.07;64.37
21290;BME280;10804;48.988;2.408;2022-11-15T06:02:15;99970.16;;;13.06;64.72
21290;BME280;10804;48.988;2.408;2022-11-15T06:05:20;99958.84;;;13.05;64.33
21290;BME280;10804;48.988;2.408;2022-11-15T06:08:24;99949.25;;;13.04;64.39
21290;BME280;10804;48.988;2.408;2022-11-15T06:11:30;99943.25;;;13.02;64.67
21290;BME280;10804;48.988;2.408;2022-11-15T06:14:34;99931.88;;;13.03;64.56
21290;BME280;10804;48.988;2.408;2022-11-15T06:17:39;99941.41;;;13.04;64.40
21290;BME280;10804;48.988;2.408;2022-11-15T06:20:44;99934.50;;;13.03;64.64
21290;BME280;10804;48.988;2.408;2022-11-15T06:23:48;99931.03;;;13.03;64.48
21290;BME280;10804;48.988;2.408;2022-11-15T06:26:54;99918.78;;;13.03;64.64
21290;BME280;10804;48.988;2.408;2022-11-15T06:29:59;99910.16;;;13.01;64.64
21290;BME280;10804;48.988;2.408;2022-11-15T06:33:04;99897.94;;;13.02;64.59
21290;BME280;10804;48.988;2.408;2022-11-15T06:36:11;99895.44;;;12.99;64.71
21290;BME280;10804;48.988;2.408;2022-11-15T06:39:18;99901.38;;;13.02;64.39
21290;BME280;10804;48.988;2.408;2022-11-15T06:42:25;99884.00;;;13.01;64.62
21290;BME280;10804;48.988;2.408;2022-11-15T06:45:29;99875.22;;;13.02;64.42
21290;BME280;10804;48.988;2.408;2022-11-15T06:48:34;99872.59;;;13.02;64.31
21290;BME280;10804;48.988;2.408;2022-11-15T06:51:39;99874.44;;;13.00;64.44
21290;BME280;10804;48.988;2.408;2022-11-15T06:54:44;99879.63;;;13.02;64.43
21290;BME280;10804;48.988;2.408;2022-11-15T06:57:51;99869.91;;;13.04;64.28
21290;BME280;10804;48.988;2.408;2022-11-15T07:00:58;99863.81;;;13.03;64.52
21290;BME280;10804;48.988;2.408;2022-11-15T07:04:03;99855.97;;;13.03;64.27
21290;BME280;10804;48.988;2.408;2022-11-15T07:07:08;99845.50;;;13.03;64.46
21290;BME280;10804;48.988;2.408;2022-11-15T07:10:12;99843.81;;;13.02;64.53
21290;BME280;10804;48.988;2.408;2022-11-15T07:13:18;99831.47;;;13.04;64.29
21290;BME280;10804;48.988;2.408;2022-11-15T07:16:22;99845.50;;;13.03;64.09
21290;BME280;10804;48.988;2.408;2022-11-15T07:19:27;99845.38;;;13.06;64.29
21290;BME280;10804;48.988;2.408;2022-11-15T07:22:31;99863.69;;;13.06;64.02
21290;BME280;10804;48.988;2.408;2022-11-15T07:25:36;99861.06;;;13.06;64.48
21290;BME280;10804;48.988;2.408;2022-11-15T07:28:42;99859.38;;;13.05;64.36
21290;BME280;10804;48.988;2.408;2022-11-15T07:31:46;99868.06;;;13.06;64.37
21290;BME280;10804;48.988;2.408;2022-11-15T07:34:51;99862.75;;;13.07;64.38
21290;BME280;10804;48.988;2.408;2022-11-15T07:37:57;99858.44;;;13.06;64.16
21290;BME280;10804;48.988;2.408;2022-11-15T07:41:03;99860.22;;;13.06;64.30
21290;BME280;10804;48.988;2.408;2022-11-15T07:44:10;99842.81;;;13.05;64.29
21290;BME280;10804;48.988;2.408;2022-11-15T07:47:14;99830.59;;;13.05;64.22
21290;BME280;10804;48.988;2.408;2022-11-15T07:50:19;99825.34;;;13.05;64.21
21290;BME280;10804;48.988;2.408;2022-11-15T07:53:24;99820.00;;;13.07;64.05
21290;BME280;10804;48.988;2.408;2022-11-15T07:56:28;99819.19;;;13.06;64.13
21290;BME280;10804;48.988;2.408;2022-11-15T07:59:34;99805.25;;;13.06;64.20
21290;BME280;10804;48.988;2.408;2022-11-15T08:02:39;99790.41;;;13.06;64.27
21290;BME280;10804;48.988;2.408;2022-11-15T08:05:43;99805.16;;;13.07;64.14
21290;BME280;10804;48.988;2.408;2022-11-15T08:08:53;99799.00;;;13.08;64.11
21290;BME280;10804;48.988;2.408;2022-11-15T08:11:58;99794.59;;;13.09;63.85
21290;BME280;10804;48.988;2.408;2022-11-15T08:15:05;99799.84;;;13.09;64.11
21290;BME280;10804;48.988;2.408;2022-11-15T08:18:11;99797.16;;;13.10;64.02
21290;BME280;10804;48.988;2.408;2022-11-15T08:21:19;99800.69;;;13.09;64.03
21290;BME280;10804;48.988;2.408;2022-11-15T08:24:24;99805.88;;;13.11;64.30
21290;BME280;10804;48.988;2.408;2022-11-15T08:27:28;99809.31;;;13.11;64.05
21290;BME280;10804;48.988;2.408;2022-11-15T08:30:37;99792.69;;;13.12;64.25
21290;BME280;10804;48.988;2.408;2022-11-15T08:33:44;99796.09;;;13.14;64.27
21290;BME280;10804;48.988;2.408;2022-11-15T08:36:49;99793.38;;;13.16;64.11
21290;BME280;10804;48.988;2.408;2022-11-15T08:39:53;99783.75;;;13.16;63.83
21290;BME280;10804;48.988;2.408;2022-11-15T08:42:58;99783.69;;;13.18;64.10
21290;BME280;10804;48.988;2.408;2022-11-15T08:46:08;99774.16;;;13.17;63.84
21290;BME280;10804;48.988;2.408;2022-11-15T08:49:15;99781.84;;;13.20;63.75
21290;BME280;10804;48.988;2.408;2022-11-15T08:52:20;99778.34;;;13.19;64.10
21290;BME280;10804;48.988;2.408;2022-11-15T08:55:24;99770.44;;;13.21;64.01
21290;BME280;10804;48.988;2.408;2022-11-15T08:58:29;99763.44;;;13.21;64.11
21290;BME280;10804;48.988;2.408;2022-11-15T09:01:35;99756.28;;;13.25;63.85
21290;BME280;10804;48.988;2.408;2022-11-15T09:04:40;99751.88;;;13.25;63.75
21290;BME280;10804;48.988;2.408;2022-11-15T09:07:45;99741.31;;;13.27;63.79
21290;BME280;10804;48.988;2.408;2022-11-15T09:10:49;99736.91;;;13.27;63.95
21290;BME280;10804;48.988;2.408;2022-11-15T09:13:54;99733.28;;;13.30;64.00
21290;BME280;10804;48.988;2.408;2022-11-15T09:17:01;99727.22;;;13.29;63.73
21290;BME280;10804;48.988;2.408;2022-11-15T09:20:07;99733.16;;;13.33;63.82
21290;BME280;10804;48.988;2.408;2022-11-15T09:23:11;99737.53;;;13.32;63.68
21290;BME280;10804;48.988;2.408;2022-11-15T09:26:16;99732.13;;;13.35;63.76
21290;BME280;10804;48.988;2.408;2022-11-15T09:29:21;99724.19;;;13.37;63.49
21290;BME280;10804;48.988;2.408;2022-11-15T09:32:29;99726.75;;;13.38;63.54
21290;BME280;10804;48.988;2.408;2022-11-15T09:35:33;99725.81;;;13.39;63.50
21290;BME280;10804;48.988;2.408;2022-11-15T09:38:38;99727.50;;;13.40;63.67
21290;BME280;10804;48.988;2.408;2022-11-15T09:42:05;99720.38;;;13.42;63.57
21290;BME280;10804;48.988;2.408;2022-11-15T09:45:19;99726.50;;;13.43;63.56
21290;BME280;10804;48.988;2.408;2022-11-15T09:48:36;99730.88;;;13.42;63.44
21290;BME280;10804;48.988;2.408;2022-11-15T09:51:47;99724.56;;;13.46;63.69
21290;BME280;10804;48.988;2.408;2022-11-15T09:54:36;99725.38;;;13.47;63.70
21290;BME280;10804;48.988;2.408;2022-11-15T09:57:30;99722.69;;;13.48;63.56
21290;BME280;10804;48.988;2.408;2022-11-15T10:00:19;99718.31;;;13.49;63.60
21290;BME280;10804;48.988;2.408;2022-11-15T10:03:11;99717.44;;;13.48;63.52
21290;BME280;10804;48.988;2.408;2022-11-15T10:06:01;99722.53;;;13.51;63.31
21290;BME280;10804;48.988;2.408;2022-11-15T10:08:55;99707.66;;;13.52;63.74
21290;BME280;10804;48.988;2.408;2022-11-15T10:11:44;99715.44;;;13.53;63.42
21290;BME280;10804;48.988;2.408;2022-11-15T10:14:31;99706.66;;;13.54;63.30
21290;BME280;10804;48.988;2.408;2022-11-15T10:18:00;99704.03;;;13.54;63.52
21290;BME280;10804;48.988;2.408;2022-11-15T10:20:50;99696.19;;;13.54;63.63
21290;BME280;10804;48.988;2.408;2022-11-15T10:23:40;99683.84;;;13.56;63.48
21290;BME280;10804;48.988;2.408;2022-11-15T10:26:26;99680.28;;;13.57;63.25
21290;BME280;10804;48.988;2.408;2022-11-15T10:29:18;99671.59;;;13.57;63.36
21290;BME280;10804;48.988;2.408;2022-11-15T10:32:04;99666.94;;;13.62;63.20
21290;BME280;10804;48.988;2.408;2022-11-15T10:34:49;99666.94;;;13.62;63.25
21290;BME280;10804;48.988;2.408;2022-11-15T10:37:36;99645.97;;;13.62;63.20
21290;BME280;10804;48.988;2.408;2022-11-15T10:40:24;99651.22;;;13.62;63.26
21290;BME280;10804;48.988;2.408;2022-11-15T10:43:15;99646.75;;;13.64;63.29
21290;BME280;10804;48.988;2.408;2022-11-15T10:46:18;99644.97;;;13.64;63.47
21290;BME280;10804;48.988;2.408;2022-11-15T10:49:12;99639.72;;;13.64;63.49
21290;BME280;10804;48.988;2.408;2022-11-15T10:52:01;99628.25;;;13.67;63.18
21290;BME280;10804;48.988;2.408;2022-11-15T10:54:49;99625.69;;;13.65;63.41
21290;BME280;10804;48.988;2.408;2022-11-15T10:57:38;99616.81;;;13.68;63.16
21290;BME280;10804;48.988;2.408;2022-11-15T11:00:32;99617.75;;;13.67;63.40
21290;BME280;10804;48.988;2.408;2022-11-15T11:03:28;99606.25;;;13.69;63.09
21290;BME280;10804;48.988;2.408;2022-11-15T11:06:17;99597.53;;;13.69;63.44
21290;BME280;10804;48.988;2.408;2022-11-15T11:09:04;99590.53;;;13.69;63.34
21290;BME280;10804;48.988;2.408;2022-11-15T11:11:51;99583.63;;;13.68;63.31
21290;BME280;10804;48.988;2.408;2022-11-15T11:14:39;99595.78;;;13.69;63.20
21290;BME280;10804;48.988;2.408;2022-11-15T11:17:32;99579.06;;;13.72;63.00
21290;BME280;10804;48.988;2.408;2022-11-15T11:20:26;99582.50;;;13.72;63.23
21290;BME280;10804;48.988;2.408;2022-11-15T11:23:32;99583.34;;;13.73;63.21
21290;BME280;10804;48.988;2.408;2022-11-15T11:26:33;99565.84;;;13.73;63.10
21290;BME280;10804;48.988;2.408;2022-11-15T11:29:31;99564.00;;;13.75;62.94
21290;BME280;10804;48.988;2.408;2022-11-15T11:32:34;99562.41;;;13.73;63.10
21290;BME280;10804;48.988;2.408;2022-11-15T11:35:29;99559.59;;;13.76;63.21
21290;BME280;10804;48.988;2.408;2022-11-15T11:38:29;99550.03;;;13.75;63.08
21290;BME280;10804;48.988;2.408;2022-11-15T11:41:32;99549.97;;;13.76;63.00
21290;BME280;10804;48.988;2.408;2022-11-15T11:44:35;99547.28;;;13.78;63.17
21290;BME280;10804;48.988;2.408;2022-11-15T11:47:30;99538.63;;;13.76;63.19
21290;BME280;10804;48.988;2.408;2022-11-15T11:50:19;99542.03;;;13.78;63.11
21290;BME280;10804;48.988;2.408;2022-11-15T11:53:12;99540.31;;;13.77;63.05
21290;BME280;10804;48.988;2.408;2022-11-15T11:56:06;99543.78;;;13.77;63.12
21290;BME280;10804;48.988;2.408;2022-11-15T11:58:55;99531.44;;;13.79;63.18
21290;BME280;10804;48.988;2.408;2022-11-15T12:01:46;99519.28;;;13.78;63.26
21290;BME280;10804;48.988;2.408;2022-11-15T12:07:25;99512.34;;;13.77;63.31
21290;BME280;10804;48.988;2.408;2022-11-15T12:10:20;99514.88;;;13.79;63.05
21290;BME280;10804;48.988;2.408;2022-11-15T12:13:10;99500.75;;;13.81;62.82
21290;BME280;10804;48.988;2.408;2022-11-15T12:16:03;99504.28;;;13.80;63.17
21290;BME280;10804;48.988;2.408;2022-11-15T12:18:53;99497.22;;;13.82;63.14
21290;BME280;10804;48.988;2.408;2022-11-15T12:21:44;99491.97;;;13.82;63.17
21290;BME280;10804;48.988;2.408;2022-11-15T12:24:37;99488.56;;;13.80;63.08
21290;BME280;10804;48.988;2.408;2022-11-15T12:27:31;99474.44;;;13.83;63.08
21290;BME280;10804;48.988;2.408;2022-11-15T12:30:20;99477.00;;;13.84;63.17
21290;BME280;10804;48.988;2.408;2022-11-15T12:33:31;99478.75;;;13.84;62.94
21290;BME280;10804;48.988;2.408;2022-11-15T12:36:34;99472.69;;;13.83;62.98
21290;BME280;10804;48.988;2.408;2022-11-15T12:46:58;99459.47;;;13.85;62.97
21290;BME280;10804;48.988;2.408;2022-11-15T12:49:45;99441.91;;;13.87;63.06
21290;BME280;10804;48.988;2.408;2022-11-15T12:52:31;99433.09;;;13.88;63.02
21290;BME280;10804;48.988;2.408;2022-11-15T12:55:31;99437.50;;;13.87;62.95
21290;BME280;10804;48.988;2.408;2022-11-15T12:58:27;99434.78;;;13.89;63.03
21290;BME280;10804;48.988;2.408;2022-11-15T13:04:34;99418.03;;;13.91;62.88
21290;BME280;10804;48.988;2.408;2022-11-15T13:10:41;99405.88;;;13.90;63.05
21290;BME280;10804;48.988;2.408;2022-11-15T13:13:43;99396.06;;;13.94;63.26
21290;BME280;10804;48.988;2.408;2022-11-15T13:16:29;99395.94;;;13.95;63.24
21290;BME280;10804;48.988;2.408;2022-11-15T13:19:24;99375.09;;;13.94;63.19
21290;BME280;10804;48.988;2.408;2022-11-15T13:22:10;99376.66;;;13.96;63.13
21290;BME280;10804;48.988;2.408;2022-11-15T13:25:21;99380.13;;;13.97;62.87
21290;BME280;10804;48.988;2.408;2022-11-15T13:28:21;99359.16;;;13.97;63.04
21290;BME280;10804;48.988;2.408;2022-11-15T13:31:21;99363.56;;;13.96;62.89
21290;BME280;10804;48.988;2.408;2022-11-15T13:34:23;99353.91;;;13.97;62.97
21290;BME280;10804;48.988;2.408;2022-11-15T13:37:13;99355.44;;;14.01;62.93
21290;BME280;10804;48.988;2.408;2022-11-15T13:40:22;99363.19;;;14.02;63.20
21290;BME280;10804;48.988;2.408;2022-11-15T13:43:31;99356.25;;;14.01;62.92
21290;BME280;10804;48.988;2.408;2022-11-15T13:46:19;99356.25;;;14.01;63.00
21290;BME280;10804;48.988;2.408;2022-11-15T13:49:08;99360.56;;;14.02;62.94
21290;BME280;10804;48.988;2.408;2022-11-15T13:51:56;99359.63;;;14.03;63.31
21290;BME280;10804;48.988;2.408;2022-11-15T13:54:44;99350.81;;;14.04;63.13
21290;BME280;10804;48.988;2.408;2022-11-15T13:57:37;99350.00;;;14.04;63.04
21290;BME280;10804;48.988;2.408;2022-11-15T14:00:36;99348.19;;;14.04;63.27
21290;BME280;10804;48.988;2.408;2022-11-15T14:03:25;99348.97;;;14.06;62.88
21290;BME280;10804;48.988;2.408;2022-11-15T14:06:15;99348.84;;;14.08;63.00
21290;BME280;10804;48.988;2.408;2022-11-15T14:12:26;99335.75;;;14.08;62.86
21290;BME280;10804;48.988;2.408;2022-11-15T14:15:27;99326.13;;;14.08;63.24
21290;BME280;10804;48.988;2.408;2022-11-15T14:18:43;99319.00;;;14.10;63.02
21290;BME280;10804;48.988;2.408;2022-11-15T14:21:29;99322.56;;;14.09;63.15
21290;BME280;10804;48.988;2.408;2022-11-15T14:24:15;99312.06;;;14.09;63.04
21290;BME280;10804;48.988;2.408;2022-11-15T14:27:16;99310.19;;;14.11;63.23
21290;BME280;10804;48.988;2.408;2022-11-15T14:30:02;99297.19;;;14.10;63.38
21290;BME280;10804;48.988;2.408;2022-11-15T14:32:50;99294.44;;;14.11;62.88
21290;BME280;10804;48.988;2.408;2022-11-15T14:35:38;99288.38;;;14.11;63.08
21290;BME280;10804;48.988;2.408;2022-11-15T14:38:25;99284.81;;;14.12;63.00
21290;BME280;10804;48.988;2.408;2022-11-15T14:41:18;99278.72;;;14.11;63.29
21290;BME280;10804;48.988;2.408;2022-11-15T14:44:05;99275.19;;;14.12;63.15
21290;BME280;10804;48.988;2.408;2022-11-15T14:46:51;99269.75;;;14.15;63.27
21290;BME280;10804;48.988;2.408;2022-11-15T14:49:37;99269.81;;;14.14;63.01
21290;BME280;10804;48.988;2.408;2022-11-15T14:52:26;99263.63;;;14.15;63.36
21290;BME280;10804;48.988;2.408;2022-11-15T14:55:17;99251.47;;;14.14;63.15
21290;BME280;10804;48.988;2.408;2022-11-15T14:58:06;99245.41;;;14.13;63.04
21290;BME280;10804;48.988;2.408;2022-11-15T15:00:53;99247.91;;;14.15;63.03
21290;BME280;10804;48.988;2.408;2022-11-15T15:03:39;99245.28;;;14.15;63.22
21290;BME280;10804;48.988;2.408;2022-11-15T15:06:25;99241.72;;;14.16;63.05
21290;BME280;10804;48.988;2.408;2022-11-15T15:09:12;99222.56;;;14.15;63.20
21290;BME280;10804;48.988;2.408;2022-11-15T15:11:59;99222.56;;;14.15;63.12
21290;BME280;10804;48.988;2.408;2022-11-15T15:14:46;99225.09;;;14.17;63.36
21290;BME280;10804;48.988;2.408;2022-11-15T15:17:33;99229.47;;;14.16;63.25
21290;BME280;10804;48.988;2.408;2022-11-15T15:20:18;99228.53;;;14.17;63.22
21290;BME280;10804;48.988;2.408;2022-11-15T15:23:04;99235.56;;;14.17;63.26
21290;BME280;10804;48.988;2.408;2022-11-15T15:25:52;99233.72;;;14.19;63.21
21290;BME280;10804;48.988;2.408;2022-11-15T15:28:37;99238.03;;;14.20;63.26
21290;BME280;10804;48.988;2.408;2022-11-15T15:31:24;99233.63;;;14.20;63.32
21290;BME280;10804;48.988;2.408;2022-11-15T15:34:09;99229.22;;;14.21;63.09
21290;BME280;10804;48.988;2.408;2022-11-15T15:39:59;99220.53;;;14.20;63.26
21290;BME280;10804;48.988;2.408;2022-11-15T15:42:47;99218.81;;;14.19;63.15
21290;BME280;10804;48.988;2.408;2022-11-15T15:45:34;99209.81;;;14.23;63.35
21290;BME280;10804;48.988;2.408;2022-11-15T15:48:21;99205.44;;;14.24;63.23
21290;BME280;10804;48.988;2.408;2022-11-15T15:51:07;99216.75;;;14.24;63.13
21290;BME280;10804;48.988;2.408;2022-11-15T15:53:53;99218.53;;;14.24;63.14
21290;BME280;10804;48.988;2.408;2022-11-15T15:56:41;99207.94;;;14.25;63.20
21290;BME280;10804;48.988;2.408;2022-11-15T15:59:28;99204.50;;;14.25;62.90
21290;BME280;10804;48.988;2.408;2022-11-15T16:02:14;99201.88;;;14.25;63.02
21290;BME280;10804;48.988;2.408;2022-11-15T16:05:00;99207.94;;;14.25;63.22
21290;BME280;10804;48.988;2.408;2022-11-15T16:07:46;99198.31;;;14.26;63.22
21290;BME280;10804;48.988;2.408;2022-11-15T16:10:33;99200.81;;;14.27;62.92
21290;BME280;10804;48.988;2.408;2022-11-15T16:13:19;99195.56;;;14.27;63.08
21290;BME280;10804;48.988;2.408;2022-11-15T16:16:09;99199.88;;;14.28;62.86
21290;BME280;10804;48.988;2.408;2022-11-15T16:18:58;99204.19;;;14.29;63.07
21290;BME280;10804;48.988;2.408;2022-11-15T16:21:45;99192.03;;;14.28;63.11